createdAt,value
2018-04-07T00:01:34.634Z,5.35
2018-04-07T00:04:01.480Z,5.87
2018-04-07T00:06:28.456Z,6.28
2018-04-07T00:08:55.410Z,6.12
2018-04-07T00:11:22.249Z,5.57
2018-04-07T00:13:49.118Z,5.00
2018-04-07T00:16:15.994Z,5.78
2018-04-07T00:18:42.852Z,5.60
2018-04-07T00:21:09.756Z,6.18
2018-04-07T00:23:36.654Z,5.72
2018-04-07T00:26:03.528Z,5.87
2018-04-07T00:28:30.416Z,6.25
2018-04-07T00:30:57.308Z,6.37
2018-04-07T00:33:24.262Z,6.37
2018-04-07T00:35:51.162Z,6.07
2018-04-07T00:38:18.013Z,6.15
2018-04-07T00:40:44.987Z,5.78
2018-04-07T00:43:11.868Z,6.37
2018-04-07T00:45:38.745Z,5.95
2018-04-07T00:48:05.557Z,5.95
2018-04-07T00:50:32.521Z,6.07
2018-04-07T00:52:59.460Z,6.20
2018-04-07T00:55:26.347Z,6.22
2018-04-07T00:57:54.597Z,5.80
2018-04-07T01:00:21.565Z,6.25
2018-04-07T01:02:48.363Z,5.85
2018-04-07T01:05:15.239Z,6.32
2018-04-07T01:07:42.046Z,5.57
2018-04-07T01:10:08.895Z,6.28
2018-04-07T01:12:35.832Z,6.60
2018-04-07T01:15:02.721Z,6.78
2018-04-07T01:17:29.615Z,6.75
2018-04-07T01:19:56.459Z,6.75
2018-04-07T01:22:23.350Z,6.57
2018-04-07T01:24:50.199Z,7.28
2018-04-07T01:27:17.065Z,6.12
2018-04-07T01:29:44.039Z,6.37
2018-04-07T01:32:10.947Z,6.70
2018-04-07T01:34:37.845Z,6.40
2018-04-07T01:37:04.684Z,6.45
2018-04-07T01:39:31.596Z,6.62
2018-04-07T01:41:58.460Z,6.95
2018-04-07T01:44:25.337Z,6.47
2018-04-07T01:46:52.223Z,6.97
2018-04-07T01:49:20.402Z,6.50
2018-04-07T01:51:47.205Z,6.85
2018-04-07T01:54:14.121Z,6.50
2018-04-07T01:56:41.055Z,6.75
2018-04-07T01:59:07.989Z,6.50
2018-04-07T02:01:34.781Z,6.70
2018-04-07T02:04:01.662Z,7.97
2018-04-07T02:06:28.588Z,6.55
2018-04-07T02:08:55.453Z,6.55
2018-04-07T02:11:22.346Z,6.07
2018-04-07T02:13:49.203Z,7.57
2018-04-07T02:16:16.268Z,6.70
2018-04-07T02:18:43.128Z,6.35
2018-04-07T02:21:09.988Z,7.00
2018-04-07T02:23:36.945Z,7.07
2018-04-07T02:26:03.758Z,6.70
2018-04-07T02:28:30.656Z,6.82
2018-04-07T02:30:57.513Z,6.60
2018-04-07T02:33:24.517Z,6.90
2018-04-07T02:35:51.413Z,7.43
2018-04-07T02:38:18.360Z,7.40
2018-04-07T02:40:45.219Z,7.05
2018-04-07T02:43:12.068Z,6.55
2018-04-07T02:45:38.944Z,6.82
2018-04-07T02:48:05.909Z,6.72
2018-04-07T02:50:32.808Z,6.57
2018-04-07T02:52:59.741Z,6.22
2018-04-07T02:55:26.623Z,7.32
2018-04-07T02:57:54.852Z,6.68
2018-04-07T03:00:21.717Z,7.03
2018-04-07T03:02:48.589Z,6.90
2018-04-07T03:05:15.402Z,6.82
2018-04-07T03:07:42.350Z,6.80
2018-04-07T03:10:09.253Z,6.90
2018-04-07T03:12:36.125Z,7.03
2018-04-07T03:15:03.017Z,6.75
2018-04-07T03:17:29.867Z,6.97
2018-04-07T03:19:56.790Z,7.28
2018-04-07T03:22:23.637Z,6.78
2018-04-07T03:24:50.510Z,6.87
2018-04-07T03:27:17.388Z,7.07
2018-04-07T03:29:44.265Z,7.70
2018-04-07T03:32:11.157Z,7.05
2018-04-07T03:34:38.009Z,7.20
2018-04-07T03:37:04.882Z,7.20
2018-04-07T03:39:31.744Z,7.60
2018-04-07T03:41:58.705Z,6.50
2018-04-07T03:44:25.590Z,7.15
2018-04-07T03:46:52.551Z,7.03
2018-04-07T03:49:19.493Z,7.22
2018-04-07T03:51:46.422Z,7.40
2018-04-07T03:54:13.309Z,6.78
2018-04-07T03:56:40.193Z,7.12
2018-04-07T03:59:07.099Z,7.10
2018-04-07T04:01:33.931Z,7.05
2018-04-07T04:04:00.851Z,7.72
2018-04-07T04:06:27.644Z,8.45
2018-04-07T04:08:54.487Z,7.30
2018-04-07T04:11:21.350Z,7.47
2018-04-07T04:13:48.288Z,7.25
2018-04-07T04:16:15.299Z,7.70
2018-04-07T04:18:42.150Z,7.25
2018-04-07T04:21:09.100Z,7.25
2018-04-07T04:23:35.945Z,7.50
2018-04-07T04:26:02.794Z,6.62
2018-04-07T04:28:29.672Z,7.05
2018-04-07T04:30:56.614Z,6.75
2018-04-07T04:33:23.466Z,7.55
2018-04-07T04:35:50.305Z,7.03
2018-04-07T04:38:17.211Z,8.80
2018-04-07T04:40:44.075Z,7.75
2018-04-07T04:43:10.942Z,7.65
2018-04-07T04:45:37.817Z,7.55
2018-04-07T04:48:04.678Z,7.90
2018-04-07T04:50:31.512Z,8.40
2018-04-07T04:52:58.421Z,7.12
2018-04-07T04:55:25.368Z,7.60
2018-04-07T04:57:52.354Z,8.48
2018-04-07T05:00:19.178Z,7.78
2018-04-07T05:02:46.143Z,7.95
2018-04-07T05:05:13.001Z,8.27
2018-04-07T05:07:39.910Z,8.15
2018-04-07T05:10:06.844Z,8.20
2018-04-07T05:12:33.672Z,7.95
2018-04-07T05:15:00.598Z,7.25
2018-04-07T05:17:27.434Z,7.18
2018-04-07T05:19:54.352Z,7.62
2018-04-07T05:22:21.186Z,7.25
2018-04-07T05:24:48.044Z,7.03
2018-04-07T05:27:14.895Z,7.22
2018-04-07T05:29:41.716Z,8.07
2018-04-07T05:32:08.564Z,7.97
2018-04-07T05:34:35.409Z,7.60
2018-04-07T05:37:02.223Z,7.60
2018-04-07T05:39:29.066Z,7.77
2018-04-07T05:41:55.836Z,7.83
2018-04-07T05:44:22.730Z,7.63
2018-04-07T05:46:49.584Z,8.20
2018-04-07T05:49:16.482Z,6.77
2018-04-07T05:51:43.305Z,8.57
2018-04-07T05:54:10.126Z,7.83
2018-04-07T05:56:36.947Z,8.40
2018-04-07T05:59:03.794Z,7.80
2018-04-07T06:01:30.627Z,8.40
2018-04-07T06:03:57.462Z,8.73
2018-04-07T06:06:24.314Z,8.83
2018-04-07T06:08:51.131Z,9.23
2018-04-07T06:11:17.946Z,8.60
2018-04-07T06:13:44.811Z,9.03
2018-04-07T06:16:11.865Z,9.23
2018-04-07T06:18:38.792Z,9.33
2018-04-07T06:21:05.761Z,10.23
2018-04-07T06:23:32.652Z,10.60
2018-04-07T06:25:59.538Z,10.37
2018-04-07T06:28:26.451Z,13.07
2018-04-07T06:30:53.318Z,13.40
2018-04-07T06:33:20.115Z,11.03
2018-04-07T06:35:46.958Z,10.17
2018-04-07T06:38:13.820Z,9.80
2018-04-07T06:40:40.643Z,9.87
2018-04-07T06:43:07.523Z,10.67
2018-04-07T06:45:34.435Z,9.87
2018-04-07T06:48:01.305Z,10.20
2018-04-07T06:50:28.984Z,10.50
2018-04-07T06:52:55.906Z,11.50
2018-04-07T06:55:32.020Z,11.27
2018-04-07T06:57:59.115Z,11.40
2018-04-07T07:00:26.027Z,11.50
2018-04-07T07:02:52.894Z,10.97
2018-04-07T07:05:19.802Z,11.47
2018-04-07T07:07:46.678Z,12.37
2018-04-07T07:10:13.542Z,12.13
2018-04-07T07:12:40.425Z,12.77
2018-04-07T07:15:07.674Z,12.07
2018-04-07T07:17:34.602Z,12.10
2018-04-07T07:20:01.458Z,12.30
2018-04-07T07:22:28.321Z,12.33
2018-04-07T07:24:55.210Z,12.47
2018-04-07T07:27:22.114Z,13.23
2018-04-07T07:29:48.945Z,12.70
2018-04-07T07:32:15.830Z,13.57
2018-04-07T07:34:42.783Z,13.00
2018-04-07T07:37:09.604Z,13.60
2018-04-07T07:39:36.502Z,13.23
2018-04-07T07:42:03.369Z,13.20
2018-04-07T07:44:30.227Z,12.67
2018-04-07T07:46:57.136Z,13.13
2018-04-07T07:49:24.028Z,13.50
2018-04-07T07:51:50.899Z,13.50
2018-04-07T07:54:17.716Z,13.70
2018-04-07T07:56:44.572Z,13.77
2018-04-07T07:59:11.379Z,13.33
2018-04-07T08:01:38.310Z,13.93
2018-04-07T08:04:05.197Z,14.00
2018-04-07T08:06:32.069Z,13.60
2018-04-07T08:08:58.952Z,13.30
2018-04-07T08:11:25.881Z,13.97
2018-04-07T08:13:52.715Z,13.43
2018-04-07T08:16:19.680Z,13.40
2018-04-07T08:18:46.555Z,14.30
2018-04-07T08:21:13.455Z,13.57
2018-04-07T08:23:40.321Z,13.67
2018-04-07T08:26:07.235Z,12.77
2018-04-07T08:28:34.096Z,13.57
2018-04-07T08:31:01.106Z,13.20
2018-04-07T08:33:28.088Z,13.77
2018-04-07T08:35:54.929Z,13.33
2018-04-07T08:38:21.836Z,14.07
2018-04-07T08:40:48.675Z,14.13
2018-04-07T08:43:15.549Z,13.30
2018-04-07T08:45:42.375Z,13.97
2018-04-07T08:48:09.292Z,14.23
2018-04-07T08:50:41.952Z,13.47
2018-04-07T08:53:08.788Z,13.03
2018-04-07T08:55:35.663Z,13.17
2018-04-07T08:58:02.533Z,14.97
2018-04-07T09:00:29.362Z,12.47
2018-04-07T09:02:56.183Z,12.17
2018-04-07T09:05:23.054Z,12.93
2018-04-07T09:07:49.918Z,14.23
2018-04-07T09:10:16.778Z,12.73
2018-04-07T09:12:43.773Z,13.20
2018-04-07T09:15:10.703Z,13.80
2018-04-07T09:17:37.625Z,13.47
2018-04-07T09:20:04.511Z,12.50
2018-04-07T09:22:31.386Z,13.80
2018-04-07T09:24:58.268Z,13.30
2018-04-07T09:27:25.173Z,13.03
2018-04-07T09:29:52.012Z,12.20
2018-04-07T09:32:18.913Z,12.80
2018-04-07T09:34:46.019Z,13.00
2018-04-07T09:37:12.952Z,12.23
2018-04-07T09:39:39.882Z,12.67
2018-04-07T09:42:06.779Z,11.27
2018-04-07T09:44:33.658Z,13.20
2018-04-07T09:47:00.812Z,11.57
2018-04-07T09:49:27.780Z,11.83
2018-04-07T09:51:54.673Z,12.43
2018-04-07T09:54:21.621Z,11.63
2018-04-07T09:56:48.543Z,12.07
2018-04-07T09:59:15.439Z,11.60
2018-04-07T10:01:42.413Z,11.73
2018-04-07T10:04:09.366Z,10.73
2018-04-07T10:06:41.940Z,11.53
2018-04-07T10:09:08.964Z,11.80
2018-04-07T10:11:35.856Z,11.03
2018-04-07T10:14:02.791Z,11.40
2018-04-07T10:16:29.681Z,10.33
2018-04-07T10:18:56.658Z,11.00
2018-04-07T10:21:23.570Z,11.60
2018-04-07T10:23:50.388Z,11.83
2018-04-07T10:26:17.289Z,12.30
2018-04-07T10:28:44.138Z,11.63
2018-04-07T10:31:11.012Z,11.32
2018-04-07T10:33:37.975Z,11.63
2018-04-07T10:36:04.938Z,10.93
2018-04-07T10:38:35.881Z,10.35
2018-04-07T10:41:07.395Z,10.82
2018-04-07T10:43:43.548Z,10.18
2018-04-07T10:46:21.542Z,9.85
2018-04-07T10:49:00.435Z,8.98
2018-04-07T10:51:28.210Z,9.73
2018-04-07T10:53:55.097Z,9.65
2018-04-07T10:56:21.992Z,9.95
2018-04-07T10:58:48.848Z,9.63
2018-04-07T11:01:15.746Z,9.00
2018-04-07T11:03:42.752Z,9.60
2018-04-07T11:06:09.640Z,9.57
2018-04-07T11:08:36.548Z,9.40
2018-04-07T11:11:03.384Z,9.07
2018-04-07T11:13:30.311Z,9.93
2018-04-07T11:15:57.199Z,9.57
2018-04-07T11:18:24.087Z,9.90
2018-04-07T11:20:50.907Z,9.93
2018-04-07T11:23:17.794Z,9.80
2018-04-07T11:25:44.630Z,10.30
2018-04-07T11:28:11.503Z,9.90
2018-04-07T11:30:38.580Z,10.00
2018-04-07T11:33:05.528Z,8.95
2018-04-07T11:35:32.479Z,10.38
2018-04-07T11:37:59.416Z,10.02
2018-04-07T11:40:26.328Z,8.68
2018-04-07T11:42:53.200Z,9.18
2018-04-07T11:45:20.048Z,8.48
2018-04-07T11:47:46.939Z,8.70
2018-04-07T11:50:13.918Z,9.55
2018-04-07T11:52:40.853Z,9.35
2018-04-07T11:55:07.654Z,8.98
2018-04-07T11:57:34.503Z,8.30
2018-04-07T12:00:01.377Z,7.85
2018-04-07T12:02:28.234Z,8.13
2018-04-07T12:04:55.100Z,7.50
2018-04-07T12:07:22.003Z,7.70
2018-04-07T12:09:48.885Z,7.37
2018-04-07T12:12:15.766Z,8.37
2018-04-07T12:14:42.585Z,7.90
2018-04-07T12:17:09.441Z,7.83
2018-04-07T12:19:36.312Z,7.87
2018-04-07T12:22:03.191Z,8.03
2018-04-07T12:24:30.071Z,6.80
2018-04-07T12:26:56.992Z,7.87
2018-04-07T12:29:23.852Z,8.93
2018-04-07T12:31:50.699Z,8.70
2018-04-07T12:34:17.548Z,8.70
2018-04-07T12:36:44.524Z,9.43
2018-04-07T12:39:11.394Z,9.23
2018-04-07T12:41:38.314Z,8.27
2018-04-07T12:44:05.210Z,8.20
2018-04-07T12:46:32.094Z,7.20
2018-04-07T12:48:59.007Z,8.80
2018-04-07T12:51:25.908Z,8.47
2018-04-07T12:53:52.855Z,9.33
2018-04-07T12:56:19.684Z,7.70
2018-04-07T12:58:46.690Z,8.17
2018-04-07T13:01:13.755Z,7.83
2018-04-07T13:03:40.640Z,7.73
2018-04-07T13:06:07.535Z,8.50
2018-04-07T13:08:34.500Z,9.20
2018-04-07T13:11:01.535Z,8.97
2018-04-07T13:13:28.361Z,9.13
2018-04-07T13:15:55.269Z,8.00
2018-04-07T13:18:22.159Z,8.73
2018-04-07T13:20:49.038Z,8.67
2018-04-07T13:23:16.021Z,8.07
2018-04-07T13:25:42.893Z,8.67
2018-04-07T13:28:09.848Z,8.60
2018-04-07T13:30:36.804Z,8.73
2018-04-07T13:33:03.668Z,9.00
2018-04-07T13:35:30.580Z,9.07
2018-04-07T13:37:57.517Z,8.40
2018-04-07T13:40:24.356Z,8.87
2018-04-07T13:42:51.194Z,9.77
2018-04-07T13:45:18.074Z,9.20
2018-04-07T13:47:54.395Z,10.00
2018-04-07T13:50:29.060Z,11.43
2018-04-07T13:53:04.783Z,11.20
2018-04-07T13:55:44.863Z,11.10
2018-04-07T13:58:20.409Z,10.63
2018-04-07T14:00:56.737Z,10.73
2018-04-07T14:03:34.313Z,9.90
2018-04-07T14:06:10.100Z,10.83
2018-04-07T14:08:46.266Z,11.27
2018-04-07T14:11:24.135Z,11.33
2018-04-07T14:14:08.117Z,11.60
2018-04-07T14:16:49.157Z,12.70
2018-04-07T14:19:26.423Z,11.63
2018-04-07T14:22:22.082Z,12.83
2018-04-07T14:24:59.804Z,12.60
2018-04-07T14:27:33.664Z,12.47
2018-04-07T14:30:15.995Z,12.03
2018-04-07T14:32:53.747Z,12.13
2018-04-07T14:35:33.409Z,12.57
2018-04-07T14:38:10.659Z,11.97
2018-04-07T14:40:45.989Z,12.60
2018-04-07T14:43:19.578Z,12.20
2018-04-07T14:45:46.680Z,11.47
2018-04-07T14:48:13.638Z,11.70
2018-04-07T14:50:40.491Z,11.87
2018-04-07T14:53:07.419Z,11.90
2018-04-07T14:55:34.508Z,11.97
2018-04-07T14:58:01.381Z,12.30
2018-04-07T15:00:28.255Z,12.93
2018-04-07T15:02:55.140Z,13.00
2018-04-07T15:05:21.999Z,12.77
2018-04-07T15:07:48.803Z,12.97
2018-04-07T15:10:15.696Z,13.10
2018-04-07T15:12:42.623Z,12.23
2018-04-07T15:15:09.440Z,12.80
2018-04-07T15:17:36.462Z,13.30
2018-04-07T15:20:03.499Z,14.67
2018-04-07T15:22:30.346Z,13.37
2018-04-07T15:24:57.261Z,14.20
2018-04-07T15:27:24.125Z,14.33
2018-04-07T15:29:50.964Z,14.17
2018-04-07T15:32:17.888Z,15.40
2018-04-07T15:34:44.754Z,13.53
2018-04-07T15:37:11.617Z,14.50
2018-04-07T15:39:38.478Z,13.67
2018-04-07T15:42:05.373Z,14.43
2018-04-07T15:44:32.246Z,14.00
2018-04-07T15:46:59.287Z,14.47
2018-04-07T15:49:26.187Z,14.27
2018-04-07T15:51:53.063Z,14.77
2018-04-07T15:54:19.959Z,14.37
2018-04-07T15:56:46.880Z,14.43
2018-04-07T15:59:13.712Z,15.13
2018-04-07T16:01:40.556Z,14.23
2018-04-07T16:04:07.435Z,15.03
2018-04-07T16:06:34.514Z,14.03
2018-04-07T16:09:01.464Z,13.23
2018-04-07T16:11:28.308Z,14.97
2018-04-07T16:13:55.192Z,14.83
2018-04-07T16:16:22.153Z,13.60
2018-04-07T16:18:49.091Z,13.70
2018-04-07T16:21:16.163Z,14.97
2018-04-07T16:23:43.082Z,14.90
2018-04-07T16:26:09.975Z,15.17
2018-04-07T16:28:36.840Z,15.57
2018-04-07T16:31:03.708Z,15.83
2018-04-07T16:33:30.649Z,15.60
2018-04-07T16:35:57.534Z,15.00
2018-04-07T16:38:24.365Z,15.33
2018-04-07T16:40:51.241Z,15.67
2018-04-07T16:43:18.096Z,15.07
2018-04-07T16:45:45.078Z,16.23
2018-04-07T16:48:11.925Z,14.97
2018-04-07T16:50:38.885Z,15.20
2018-04-07T16:53:05.754Z,15.67
2018-04-07T16:55:32.665Z,17.40
2018-04-07T16:57:59.609Z,16.83
2018-04-07T17:00:26.547Z,16.37
2018-04-07T17:02:53.481Z,15.53
2018-04-07T17:05:20.376Z,15.73
2018-04-07T17:07:47.227Z,16.63
2018-04-07T17:10:14.196Z,15.73
2018-04-07T17:12:41.103Z,15.40
2018-04-07T17:15:08.472Z,15.33
2018-04-07T17:17:35.399Z,15.23
2018-04-07T17:20:02.329Z,15.37
2018-04-07T17:22:29.224Z,15.77
2018-04-07T17:24:56.162Z,15.53
2018-04-07T17:27:23.042Z,15.93
2018-04-07T17:29:50.003Z,15.27
2018-04-07T17:32:16.916Z,15.83
2018-04-07T17:34:43.751Z,16.33
2018-04-07T17:37:10.656Z,15.93
2018-04-07T17:39:37.518Z,15.70
2018-04-07T17:42:04.407Z,15.20
2018-04-07T17:44:31.340Z,14.60
2018-04-07T17:46:58.340Z,15.53
2018-04-07T17:49:26.204Z,15.23
2018-04-07T17:51:53.130Z,15.13
2018-04-07T17:54:20.042Z,15.20
2018-04-07T17:56:46.962Z,14.97
2018-04-07T17:59:13.823Z,16.70
2018-04-07T18:01:40.714Z,15.43
2018-04-07T18:04:09.066Z,15.70
2018-04-07T18:06:36.000Z,14.90
2018-04-07T18:09:02.958Z,15.70
2018-04-07T18:11:29.915Z,16.10
2018-04-07T18:13:56.795Z,14.27
2018-04-07T18:16:23.674Z,16.40
2018-04-07T18:18:50.674Z,15.90
2018-04-07T18:21:17.566Z,15.80
2018-04-07T18:23:44.471Z,15.53
2018-04-07T18:26:11.402Z,15.70
2018-04-07T18:28:38.273Z,16.03
2018-04-07T18:31:05.117Z,16.23
2018-04-07T18:33:32.149Z,17.37
2018-04-07T18:35:59.034Z,17.07
2018-04-07T18:38:26.027Z,16.30
2018-04-07T18:40:52.964Z,16.30
2018-04-07T18:43:19.936Z,16.83
2018-04-07T18:45:46.887Z,17.07
2018-04-07T18:48:13.744Z,16.90
2018-04-07T18:50:40.684Z,16.30
2018-04-07T18:53:07.545Z,16.77
2018-04-07T18:55:34.498Z,16.77
2018-04-07T18:58:01.466Z,16.23
2018-04-07T19:00:28.394Z,16.13
2018-04-07T19:02:55.438Z,17.10
2018-04-07T19:05:22.394Z,16.27
2018-04-07T19:07:49.423Z,16.03
2018-04-07T19:10:16.418Z,17.20
2018-04-07T19:12:43.289Z,16.87
2018-04-07T19:15:10.168Z,16.33
2018-04-07T19:17:37.137Z,16.77
2018-04-07T19:20:04.097Z,17.37
2018-04-07T19:22:30.916Z,16.27
2018-04-07T19:24:57.781Z,17.00
2018-04-07T19:27:24.613Z,17.50
2018-04-07T19:29:51.492Z,16.17
2018-04-07T19:32:18.369Z,17.87
2018-04-07T19:34:45.274Z,16.73
2018-04-07T19:37:12.278Z,17.30
2018-04-07T19:39:39.146Z,17.73
2018-04-07T19:42:06.025Z,17.60
2018-04-07T19:44:32.973Z,18.07
2018-04-07T19:46:59.817Z,18.17
2018-04-07T19:49:26.788Z,18.03
2018-04-07T19:51:53.660Z,18.27
2018-04-07T19:54:20.569Z,17.97
2018-04-07T19:56:47.447Z,18.33
2018-04-07T19:59:14.263Z,18.50
2018-04-07T20:01:41.169Z,18.40
2018-04-07T20:04:08.052Z,18.00
2018-04-07T20:06:35.100Z,18.30
2018-04-07T20:09:01.933Z,18.70
2018-04-07T20:11:28.861Z,17.60
2018-04-07T20:13:55.777Z,18.07
2018-04-07T20:16:22.754Z,18.40
2018-04-07T20:18:49.670Z,19.07
2018-04-07T20:21:16.587Z,18.30
2018-04-07T20:23:43.469Z,17.13
2018-04-07T20:26:10.322Z,18.77
2018-04-07T20:28:37.143Z,16.93
2018-04-07T20:31:04.050Z,18.23
2018-04-07T20:33:31.032Z,17.50
2018-04-07T20:35:57.934Z,18.27
2018-04-07T20:38:24.801Z,18.40
2018-04-07T20:40:55.425Z,18.70
2018-04-07T20:43:22.345Z,17.87
2018-04-07T20:45:49.254Z,18.60
2018-04-07T20:48:16.174Z,18.97
2018-04-07T20:50:43.119Z,18.57
2018-04-07T20:53:09.942Z,19.03
2018-04-07T20:55:36.832Z,17.63
2018-04-07T20:58:03.659Z,19.93
2018-04-07T21:00:30.721Z,18.60
2018-04-07T21:02:57.672Z,19.37
2018-04-07T21:05:24.663Z,19.23
2018-04-07T21:07:51.706Z,18.83
2018-04-07T21:10:18.595Z,18.60
2018-04-07T21:12:45.443Z,18.60
2018-04-07T21:15:12.354Z,18.37
2018-04-07T21:17:39.179Z,18.83
2018-04-07T21:20:06.036Z,19.80
2018-04-07T21:22:32.893Z,17.73
2018-04-07T21:25:00.351Z,17.70
2018-04-07T21:27:27.260Z,17.77
2018-04-07T21:29:54.109Z,18.00
2018-04-07T21:32:21.062Z,17.80
2018-04-07T21:34:47.926Z,17.90
2018-04-07T21:37:14.809Z,19.30
2018-04-07T21:39:41.707Z,18.63
2018-04-07T21:42:08.633Z,18.97
2018-04-07T21:44:35.468Z,18.73
2018-04-07T21:47:02.369Z,18.60
2018-04-07T21:49:29.229Z,20.77
2018-04-07T21:51:56.078Z,19.23
2018-04-07T21:54:23.069Z,19.23
2018-04-07T21:56:50.075Z,19.50
2018-04-07T21:59:16.999Z,20.87
2018-04-07T22:01:43.889Z,20.20
2018-04-07T22:04:10.744Z,20.63
2018-04-07T22:06:37.700Z,20.60
2018-04-07T22:09:05.532Z,20.57
2018-04-07T22:11:32.434Z,20.30
2018-04-07T22:13:59.352Z,21.57
2018-04-07T22:16:26.273Z,20.70
2018-04-07T22:18:53.323Z,20.63
2018-04-07T22:21:20.161Z,19.77
2018-04-07T22:23:47.061Z,20.70
2018-04-07T22:26:13.996Z,21.13
2018-04-07T22:28:40.947Z,20.77
2018-04-07T22:31:07.979Z,21.10
2018-04-07T22:33:34.863Z,20.80
2018-04-07T22:36:01.734Z,21.30
2018-04-07T22:38:28.656Z,20.37
2018-04-07T22:40:55.629Z,20.33
2018-04-07T22:43:22.620Z,21.47
2018-04-07T22:45:49.481Z,22.67
2018-04-07T22:48:16.399Z,22.57
2018-04-07T22:50:43.364Z,24.30
2018-04-07T22:53:10.257Z,22.17
2018-04-07T22:55:37.143Z,22.73
2018-04-07T22:58:03.965Z,22.50
2018-04-07T23:00:30.827Z,21.43
2018-04-07T23:02:57.765Z,22.13
2018-04-07T23:05:24.702Z,22.43
2018-04-07T23:07:51.698Z,21.93
2018-04-07T23:10:18.501Z,23.13
2018-04-07T23:12:45.443Z,21.83
2018-04-07T23:15:12.304Z,23.17
2018-04-07T23:17:39.162Z,22.50
2018-04-07T23:20:06.101Z,22.10
2018-04-07T23:22:33.009Z,21.63
2018-04-07T23:24:59.932Z,23.00
2018-04-07T23:27:26.774Z,22.27
2018-04-07T23:29:53.724Z,23.03
2018-04-07T23:32:20.538Z,20.70
2018-04-07T23:34:47.450Z,21.57
2018-04-07T23:37:14.367Z,22.80
2018-04-07T23:39:41.234Z,24.17
2018-04-07T23:42:08.068Z,23.73
2018-04-07T23:44:34.993Z,25.17
2018-04-07T23:47:01.915Z,24.30
2018-04-07T23:49:28.776Z,24.33
2018-04-07T23:51:55.758Z,24.27
2018-04-07T23:54:22.629Z,24.37
2018-04-07T23:56:49.501Z,24.80
2018-04-07T23:59:16.364Z,25.53
